Anderson Regional Airport
KAND : now visible

Airfield :











YOU CAN JOIN US ON...

 
LOGIN :

Register | Disclaimer

   EN    FR    IT 

 









Legend :    VFR   Marginal VFR   IFR   Intensive IFR   Very Intensive IFR
Visi :
Ceiling :
>= 8 km
>= 3000ft
5 to 8 km
1000 to 3000 ft
1500m to 5 km
500 to 1000 ft
800 to 1500m
200 to 500 ft
< 800m
< 200 ft
Symbols :   Thunderstorms  Fog  Heavy snow  Heavy precipitations  Wind > 20 kt






- Airport Elevation : 782 ft


KAND - Anderson Regional

CURRENT METAR :
  • 070156Z AUTO 00000KT 1SM BR VV003 10/10 A3025 RMK AO2 SLP241 T01000100

EXPIRED METARs :
  • 070145Z AUTO 11003KT 3/4SM BR VV003 10/10 A3024 RMK AO2 T01000100
  • 070109Z AUTO 00000KT 1 3/4SM BR OVC003 10/10 A3024 RMK AO2 T01000100
  • 070056Z AUTO 00000KT 2SM BR OVC003 10/10 A3024 RMK AO2 SLP240 T01000100
  • 070031Z AUTO 00000KT 4SM BR OVC002 11/10 A3024 RMK AO2 T01060100
  • 070024Z AUTO 00000KT 2 1/2SM BR OVC002 11/09 A3023 RMK AO2 T01060094
  • 062356Z AUTO 00000KT 5SM BR OVC003 11/10 A3023 RMK AO2 SLP237 T01060100 10106 20094 51008

TAF KAND
Valid from the 07 at 02:00 until the 08 at 00:00 UTC


070155Z 0702/0724 VRB02KT 1/2SM -DZ FG VCSH OVC003
FM070600 00000KT 1/4SM -DZ FG OVC002
FM071500 VRB02KT 1SM -DZ BR OVC003
FM071700 22004KT 1 1/2SM BR OVC005
FM072200 23006KT 6SM BR SCT006 BKN012
KZTL FIR / North America



MET'MAP, your aeronautical weather chart ! - Copyright ORBIFLY December 2007 - Disclaimer

ORBIFLY MET'MAP TEAM :

Programming & Development : Alexandra Zaïnal
Original concept : Baudouin d'Aumeries
Technical & hardware support : Manuel Goepfert
Assistance : Marc-Olivier Méhu




SOURCES & CREDITS :

   NOAA       Earth
Advisory